sensor_id;sensor_type;location;lat;lon;timestamp;P1;durP1;ratioP1;P2;durP2;ratioP2
2452;SDS011;63678;47.994;7.854;2024-01-16T00:01:44;13.43;;;5.93;;
2452;SDS011;63678;47.994;7.854;2024-01-16T00:04:16;13.55;;;6.22;;
2452;SDS011;63678;47.994;7.854;2024-01-16T00:06:49;13.82;;;6.35;;
2452;SDS011;63678;47.994;7.854;2024-01-16T00:09:21;15.63;;;7.40;;
2452;SDS011;63678;47.994;7.854;2024-01-16T00:11:53;12.80;;;5.40;;
2452;SDS011;63678;47.994;7.854;2024-01-16T00:14:26;23.20;;;11.73;;
2452;SDS011;63678;47.994;7.854;2024-01-16T00:16:59;15.13;;;7.03;;
2452;SDS011;63678;47.994;7.854;2024-01-16T00:19:31;14.52;;;5.88;;
2452;SDS011;63678;47.994;7.854;2024-01-16T00:22:04;14.27;;;6.63;;
2452;SDS011;63678;47.994;7.854;2024-01-16T00:24:36;12.27;;;5.77;;
2452;SDS011;63678;47.994;7.854;2024-01-16T00:27:09;13.38;;;5.68;;
2452;SDS011;63678;47.994;7.854;2024-01-16T00:29:42;14.75;;;6.35;;
2452;SDS011;63678;47.994;7.854;2024-01-16T00:32:14;14.80;;;6.60;;
2452;SDS011;63678;47.994;7.854;2024-01-16T00:34:48;13.02;;;6.38;;
2452;SDS011;63678;47.994;7.854;2024-01-16T00:37:20;12.50;;;6.73;;
2452;SDS011;63678;47.994;7.854;2024-01-16T00:39:53;12.65;;;6.38;;
2452;SDS011;63678;47.994;7.854;2024-01-16T00:42:26;12.57;;;6.45;;
2452;SDS011;63678;47.994;7.854;2024-01-16T00:44:58;11.02;;;6.47;;
2452;SDS011;63678;47.994;7.854;2024-01-16T00:47:31;12.02;;;6.10;;
2452;SDS011;63678;47.994;7.854;2024-01-16T00:50:03;12.23;;;5.87;;
2452;SDS011;63678;47.994;7.854;2024-01-16T00:52:36;13.13;;;6.80;;
2452;SDS011;63678;47.994;7.854;2024-01-16T00:55:09;11.63;;;6.55;;
2452;SDS011;63678;47.994;7.854;2024-01-16T00:57:41;11.13;;;5.57;;
2452;SDS011;63678;47.994;7.854;2024-01-16T01:00:13;13.45;;;6.97;;
2452;SDS011;63678;47.994;7.854;2024-01-16T01:02:46;12.23;;;6.27;;
2452;SDS011;63678;47.994;7.854;2024-01-16T01:05:18;17.98;;;7.63;;
2452;SDS011;63678;47.994;7.854;2024-01-16T01:07:52;13.52;;;6.97;;
2452;SDS011;63678;47.994;7.854;2024-01-16T01:10:24;11.23;;;6.18;;
2452;SDS011;63678;47.994;7.854;2024-01-16T01:12:57;15.15;;;6.90;;
2452;SDS011;63678;47.994;7.854;2024-01-16T01:15:29;15.27;;;6.93;;
2452;SDS011;63678;47.994;7.854;2024-01-16T01:18:02;15.05;;;7.13;;
2452;SDS011;63678;47.994;7.854;2024-01-16T01:20:35;13.75;;;5.88;;
2452;SDS011;63678;47.994;7.854;2024-01-16T01:23:08;20.00;;;8.75;;
2452;SDS011;63678;47.994;7.854;2024-01-16T01:25:41;10.82;;;5.47;;
2452;SDS011;63678;47.994;7.854;2024-01-16T01:28:14;21.00;;;10.30;;
2452;SDS011;63678;47.994;7.854;2024-01-16T01:30:47;11.90;;;6.13;;
2452;SDS011;63678;47.994;7.854;2024-01-16T01:33:19;13.48;;;5.80;;
2452;SDS011;63678;47.994;7.854;2024-01-16T01:35:51;18.70;;;8.20;;
2452;SDS011;63678;47.994;7.854;2024-01-16T01:38:24;14.27;;;6.53;;
2452;SDS011;63678;47.994;7.854;2024-01-16T01:40:56;11.97;;;5.73;;
2452;SDS011;63678;47.994;7.854;2024-01-16T01:43:29;11.25;;;5.70;;
2452;SDS011;63678;47.994;7.854;2024-01-16T01:46:17;13.32;;;5.82;;
2452;SDS011;63678;47.994;7.854;2024-01-16T01:48:50;12.25;;;5.03;;
2452;SDS011;63678;47.994;7.854;2024-01-16T01:51:23;11.85;;;5.63;;
2452;SDS011;63678;47.994;7.854;2024-01-16T01:53:56;11.43;;;5.40;;
2452;SDS011;63678;47.994;7.854;2024-01-16T01:56:30;13.93;;;5.28;;
2452;SDS011;63678;47.994;7.854;2024-01-16T01:59:02;9.57;;;5.65;;
2452;SDS011;63678;47.994;7.854;2024-01-16T02:01:35;9.82;;;4.90;;
2452;SDS011;63678;47.994;7.854;2024-01-16T02:04:07;12.27;;;5.22;;
2452;SDS011;63678;47.994;7.854;2024-01-16T02:06:43;8.77;;;5.10;;
2452;SDS011;63678;47.994;7.854;2024-01-16T02:09:16;10.10;;;5.25;;
2452;SDS011;63678;47.994;7.854;2024-01-16T02:11:48;11.05;;;5.88;;
2452;SDS011;63678;47.994;7.854;2024-01-16T02:14:20;12.20;;;5.20;;
2452;SDS011;63678;47.994;7.854;2024-01-16T02:16:53;9.88;;;5.00;;
2452;SDS011;63678;47.994;7.854;2024-01-16T02:19:25;12.20;;;5.40;;
2452;SDS011;63678;47.994;7.854;2024-01-16T02:22:00;10.50;;;5.35;;
2452;SDS011;63678;47.994;7.854;2024-01-16T02:24:40;10.85;;;5.20;;
2452;SDS011;63678;47.994;7.854;2024-01-16T02:27:13;10.73;;;5.35;;
2452;SDS011;63678;47.994;7.854;2024-01-16T02:29:45;8.88;;;4.28;;
2452;SDS011;63678;47.994;7.854;2024-01-16T02:32:18;10.50;;;4.73;;
2452;SDS011;63678;47.994;7.854;2024-01-16T02:34:50;10.38;;;5.15;;
2452;SDS011;63678;47.994;7.854;2024-01-16T02:37:23;9.20;;;4.95;;
2452;SDS011;63678;47.994;7.854;2024-01-16T02:39:56;11.07;;;5.15;;
2452;SDS011;63678;47.994;7.854;2024-01-16T02:42:29;14.40;;;5.35;;
2452;SDS011;63678;47.994;7.854;2024-01-16T02:45:03;8.60;;;4.23;;
2452;SDS011;63678;47.994;7.854;2024-01-16T02:47:37;9.15;;;4.75;;
2452;SDS011;63678;47.994;7.854;2024-01-16T02:50:09;13.75;;;5.28;;
2452;SDS011;63678;47.994;7.854;2024-01-16T02:52:42;11.93;;;5.13;;
2452;SDS011;63678;47.994;7.854;2024-01-16T02:55:14;11.75;;;5.53;;
2452;SDS011;63678;47.994;7.854;2024-01-16T02:57:46;8.87;;;4.73;;
2452;SDS011;63678;47.994;7.854;2024-01-16T03:00:18;10.43;;;4.90;;
2452;SDS011;63678;47.994;7.854;2024-01-16T03:02:51;8.77;;;4.65;;
2452;SDS011;63678;47.994;7.854;2024-01-16T03:05:23;8.82;;;4.68;;
2452;SDS011;63678;47.994;7.854;2024-01-16T03:07:55;9.07;;;5.22;;
2452;SDS011;63678;47.994;7.854;2024-01-16T03:10:28;10.03;;;4.60;;
2452;SDS011;63678;47.994;7.854;2024-01-16T03:13:00;12.20;;;5.20;;
2452;SDS011;63678;47.994;7.854;2024-01-16T03:15:35;12.07;;;4.93;;
2452;SDS011;63678;47.994;7.854;2024-01-16T03:18:08;11.73;;;5.28;;
2452;SDS011;63678;47.994;7.854;2024-01-16T03:20:41;12.05;;;4.93;;
2452;SDS011;63678;47.994;7.854;2024-01-16T03:23:14;12.30;;;5.20;;
2452;SDS011;63678;47.994;7.854;2024-01-16T03:25:46;9.18;;;4.65;;
2452;SDS011;63678;47.994;7.854;2024-01-16T03:28:19;9.63;;;5.10;;
2452;SDS011;63678;47.994;7.854;2024-01-16T03:30:52;10.30;;;4.93;;
2452;SDS011;63678;47.994;7.854;2024-01-16T03:33:26;12.05;;;5.30;;
2452;SDS011;63678;47.994;7.854;2024-01-16T03:35:58;11.20;;;4.83;;
2452;SDS011;63678;47.994;7.854;2024-01-16T03:38:30;9.55;;;4.45;;
2452;SDS011;63678;47.994;7.854;2024-01-16T03:41:03;10.90;;;4.70;;
2452;SDS011;63678;47.994;7.854;2024-01-16T03:43:35;10.48;;;5.55;;
2452;SDS011;63678;47.994;7.854;2024-01-16T03:46:10;9.38;;;5.30;;
2452;SDS011;63678;47.994;7.854;2024-01-16T03:48:43;9.63;;;4.77;;
2452;SDS011;63678;47.994;7.854;2024-01-16T03:51:15;9.60;;;4.82;;
2452;SDS011;63678;47.994;7.854;2024-01-16T03:53:49;9.15;;;4.78;;
2452;SDS011;63678;47.994;7.854;2024-01-16T03:56:22;7.95;;;4.55;;
2452;SDS011;63678;47.994;7.854;2024-01-16T03:58:55;9.77;;;5.20;;
2452;SDS011;63678;47.994;7.854;2024-01-16T04:01:30;10.10;;;4.73;;
2452;SDS011;63678;47.994;7.854;2024-01-16T04:04:04;10.60;;;5.25;;
2452;SDS011;63678;47.994;7.854;2024-01-16T04:06:38;12.15;;;5.28;;
2452;SDS011;63678;47.994;7.854;2024-01-16T04:09:11;8.45;;;4.45;;
2452;SDS011;63678;47.994;7.854;2024-01-16T04:11:43;10.10;;;5.00;;
2452;SDS011;63678;47.994;7.854;2024-01-16T04:14:16;9.73;;;4.67;;
2452;SDS011;63678;47.994;7.854;2024-01-16T04:16:48;9.93;;;4.32;;
2452;SDS011;63678;47.994;7.854;2024-01-16T04:19:21;8.43;;;4.80;;
2452;SDS011;63678;47.994;7.854;2024-01-16T04:21:53;10.52;;;4.90;;
2452;SDS011;63678;47.994;7.854;2024-01-16T04:24:26;11.23;;;4.32;;
2452;SDS011;63678;47.994;7.854;2024-01-16T04:26:59;9.80;;;4.20;;
2452;SDS011;63678;47.994;7.854;2024-01-16T04:29:32;8.43;;;3.95;;
2452;SDS011;63678;47.994;7.854;2024-01-16T04:32:04;7.93;;;4.22;;
2452;SDS011;63678;47.994;7.854;2024-01-16T04:34:37;7.18;;;4.40;;
2452;SDS011;63678;47.994;7.854;2024-01-16T04:37:09;10.75;;;4.68;;
2452;SDS011;63678;47.994;7.854;2024-01-16T04:39:41;8.97;;;4.90;;
2452;SDS011;63678;47.994;7.854;2024-01-16T04:42:13;10.30;;;4.55;;
2452;SDS011;63678;47.994;7.854;2024-01-16T04:44:49;10.65;;;4.70;;
2452;SDS011;63678;47.994;7.854;2024-01-16T04:47:21;11.15;;;5.00;;
2452;SDS011;63678;47.994;7.854;2024-01-16T04:49:54;8.80;;;4.20;;
2452;SDS011;63678;47.994;7.854;2024-01-16T04:52:26;8.07;;;4.57;;
2452;SDS011;63678;47.994;7.854;2024-01-16T04:54:59;10.05;;;4.60;;
2452;SDS011;63678;47.994;7.854;2024-01-16T04:57:31;10.20;;;4.28;;
2452;SDS011;63678;47.994;7.854;2024-01-16T05:00:03;9.95;;;4.22;;
2452;SDS011;63678;47.994;7.854;2024-01-16T05:02:38;8.48;;;4.60;;
2452;SDS011;63678;47.994;7.854;2024-01-16T05:05:11;12.13;;;4.50;;
2452;SDS011;63678;47.994;7.854;2024-01-16T05:07:44;8.45;;;3.90;;
2452;SDS011;63678;47.994;7.854;2024-01-16T05:10:17;7.93;;;4.72;;
2452;SDS011;63678;47.994;7.854;2024-01-16T05:12:49;12.10;;;4.78;;
2452;SDS011;63678;47.994;7.854;2024-01-16T05:15:22;8.93;;;4.07;;
2452;SDS011;63678;47.994;7.854;2024-01-16T05:17:55;11.03;;;4.30;;
2452;SDS011;63678;47.994;7.854;2024-01-16T05:20:28;10.48;;;5.05;;
2452;SDS011;63678;47.994;7.854;2024-01-16T05:23:00;8.05;;;4.80;;
2452;SDS011;63678;47.994;7.854;2024-01-16T05:25:33;9.80;;;4.05;;
2452;SDS011;63678;47.994;7.854;2024-01-16T05:28:05;8.90;;;4.55;;
2452;SDS011;63678;47.994;7.854;2024-01-16T05:30:38;8.57;;;4.47;;
2452;SDS011;63678;47.994;7.854;2024-01-16T05:33:11;7.15;;;4.25;;
2452;SDS011;63678;47.994;7.854;2024-01-16T05:35:44;9.13;;;4.70;;
2452;SDS011;63678;47.994;7.854;2024-01-16T05:38:16;6.80;;;3.97;;
2452;SDS011;63678;47.994;7.854;2024-01-16T05:40:49;8.50;;;4.00;;
2452;SDS011;63678;47.994;7.854;2024-01-16T05:43:22;8.60;;;3.80;;
2452;SDS011;63678;47.994;7.854;2024-01-16T05:45:54;11.32;;;4.45;;
2452;SDS011;63678;47.994;7.854;2024-01-16T05:48:26;7.78;;;4.55;;
2452;SDS011;63678;47.994;7.854;2024-01-16T05:50:59;11.38;;;5.32;;
2452;SDS011;63678;47.994;7.854;2024-01-16T05:53:32;8.30;;;4.00;;
2452;SDS011;63678;47.994;7.854;2024-01-16T05:56:04;12.27;;;4.90;;
2452;SDS011;63678;47.994;7.854;2024-01-16T05:58:37;7.60;;;4.05;;
2452;SDS011;63678;47.994;7.854;2024-01-16T06:01:11;9.63;;;4.63;;
2452;SDS011;63678;47.994;7.854;2024-01-16T06:03:46;8.55;;;4.30;;
2452;SDS011;63678;47.994;7.854;2024-01-16T06:06:20;8.00;;;4.82;;
2452;SDS011;63678;47.994;7.854;2024-01-16T06:08:55;8.27;;;4.20;;
2452;SDS011;63678;47.994;7.854;2024-01-16T06:11:31;8.52;;;4.50;;
2452;SDS011;63678;47.994;7.854;2024-01-16T06:14:04;8.80;;;4.90;;
2452;SDS011;63678;47.994;7.854;2024-01-16T06:16:37;8.75;;;4.20;;
2452;SDS011;63678;47.994;7.854;2024-01-16T06:19:10;9.77;;;5.30;;
2452;SDS011;63678;47.994;7.854;2024-01-16T06:21:42;10.90;;;5.60;;
2452;SDS011;63678;47.994;7.854;2024-01-16T06:24:15;9.13;;;4.70;;
2452;SDS011;63678;47.994;7.854;2024-01-16T06:26:48;10.35;;;5.10;;
2452;SDS011;63678;47.994;7.854;2024-01-16T06:29:21;6.63;;;4.13;;
2452;SDS011;63678;47.994;7.854;2024-01-16T06:32:05;12.65;;;4.47;;
2452;SDS011;63678;47.994;7.854;2024-01-16T06:34:38;17.37;;;4.20;;
2452;SDS011;63678;47.994;7.854;2024-01-16T06:37:11;7.43;;;4.47;;
2452;SDS011;63678;47.994;7.854;2024-01-16T06:39:43;8.02;;;4.80;;
2452;SDS011;63678;47.994;7.854;2024-01-16T06:42:16;10.90;;;4.55;;
2452;SDS011;63678;47.994;7.854;2024-01-16T06:44:49;8.93;;;5.07;;
2452;SDS011;63678;47.994;7.854;2024-01-16T06:47:22;10.33;;;5.50;;
2452;SDS011;63678;47.994;7.854;2024-01-16T06:49:55;10.20;;;5.07;;
2452;SDS011;63678;47.994;7.854;2024-01-16T06:52:28;12.68;;;4.63;;
2452;SDS011;63678;47.994;7.854;2024-01-16T06:55:00;10.15;;;4.55;;
2452;SDS011;63678;47.994;7.854;2024-01-16T06:57:33;14.27;;;5.78;;
2452;SDS011;63678;47.994;7.854;2024-01-16T07:00:06;11.70;;;5.13;;
2452;SDS011;63678;47.994;7.854;2024-01-16T07:02:39;9.77;;;5.03;;
2452;SDS011;63678;47.994;7.854;2024-01-16T07:05:11;11.10;;;5.47;;
2452;SDS011;63678;47.994;7.854;2024-01-16T07:07:44;9.90;;;5.00;;
2452;SDS011;63678;47.994;7.854;2024-01-16T07:10:17;11.60;;;5.47;;
2452;SDS011;63678;47.994;7.854;2024-01-16T07:12:53;10.73;;;5.23;;
2452;SDS011;63678;47.994;7.854;2024-01-16T07:15:28;13.48;;;5.53;;
2452;SDS011;63678;47.994;7.854;2024-01-16T07:18:01;12.80;;;5.43;;
2452;SDS011;63678;47.994;7.854;2024-01-16T07:20:34;11.43;;;5.30;;
2452;SDS011;63678;47.994;7.854;2024-01-16T07:23:07;12.27;;;4.80;;
2452;SDS011;63678;47.994;7.854;2024-01-16T07:25:39;8.57;;;4.57;;
2452;SDS011;63678;47.994;7.854;2024-01-16T07:28:12;11.15;;;4.85;;
2452;SDS011;63678;47.994;7.854;2024-01-16T07:30:46;10.10;;;5.10;;
2452;SDS011;63678;47.994;7.854;2024-01-16T07:33:19;15.32;;;4.75;;
2452;SDS011;63678;47.994;7.854;2024-01-16T07:35:52;7.95;;;5.03;;
2452;SDS011;63678;47.994;7.854;2024-01-16T07:38:25;9.67;;;4.80;;
2452;SDS011;63678;47.994;7.854;2024-01-16T07:40:58;10.15;;;5.50;;
2452;SDS011;63678;47.994;7.854;2024-01-16T07:43:31;10.30;;;5.25;;
2452;SDS011;63678;47.994;7.854;2024-01-16T07:46:04;8.93;;;5.30;;
2452;SDS011;63678;47.994;7.854;2024-01-16T07:48:37;13.23;;;5.43;;
2452;SDS011;63678;47.994;7.854;2024-01-16T07:51:10;13.47;;;5.20;;
2452;SDS011;63678;47.994;7.854;2024-01-16T07:53:42;13.85;;;4.90;;
2452;SDS011;63678;47.994;7.854;2024-01-16T07:56:15;11.48;;;5.00;;
2452;SDS011;63678;47.994;7.854;2024-01-16T07:58:47;11.90;;;5.40;;
2452;SDS011;63678;47.994;7.854;2024-01-16T08:01:20;10.63;;;5.05;;
2452;SDS011;63678;47.994;7.854;2024-01-16T08:03:53;10.17;;;5.27;;
2452;SDS011;63678;47.994;7.854;2024-01-16T08:06:26;10.88;;;5.60;;
2452;SDS011;63678;47.994;7.854;2024-01-16T08:08:59;10.50;;;5.30;;
2452;SDS011;63678;47.994;7.854;2024-01-16T08:11:31;10.80;;;5.85;;
2452;SDS011;63678;47.994;7.854;2024-01-16T08:14:06;18.38;;;5.70;;
2452;SDS011;63678;47.994;7.854;2024-01-16T08:16:38;12.07;;;5.83;;
2452;SDS011;63678;47.994;7.854;2024-01-16T08:19:11;13.38;;;5.18;;
2452;SDS011;63678;47.994;7.854;2024-01-16T08:21:45;12.00;;;5.93;;
2452;SDS011;63678;47.994;7.854;2024-01-16T08:24:17;12.80;;;5.85;;
2452;SDS011;63678;47.994;7.854;2024-01-16T08:26:50;10.57;;;5.45;;
2452;SDS011;63678;47.994;7.854;2024-01-16T08:29:23;9.27;;;4.70;;
2452;SDS011;63678;47.994;7.854;2024-01-16T08:31:56;12.75;;;5.20;;
2452;SDS011;63678;47.994;7.854;2024-01-16T08:34:29;10.60;;;5.10;;
2452;SDS011;63678;47.994;7.854;2024-01-16T08:37:01;11.63;;;5.53;;
2452;SDS011;63678;47.994;7.854;2024-01-16T08:39:36;11.55;;;5.85;;
2452;SDS011;63678;47.994;7.854;2024-01-16T08:42:09;11.10;;;5.77;;
2452;SDS011;63678;47.994;7.854;2024-01-16T08:44:44;11.35;;;5.60;;
2452;SDS011;63678;47.994;7.854;2024-01-16T08:47:17;10.25;;;5.43;;
2452;SDS011;63678;47.994;7.854;2024-01-16T08:49:49;13.95;;;5.68;;
2452;SDS011;63678;47.994;7.854;2024-01-16T08:52:22;8.88;;;5.15;;
2452;SDS011;63678;47.994;7.854;2024-01-16T08:54:55;11.67;;;5.43;;
2452;SDS011;63678;47.994;7.854;2024-01-16T08:57:28;13.93;;;6.00;;
2452;SDS011;63678;47.994;7.854;2024-01-16T09:00:01;17.48;;;6.50;;
2452;SDS011;63678;47.994;7.854;2024-01-16T09:02:37;11.90;;;4.97;;
2452;SDS011;63678;47.994;7.854;2024-01-16T09:05:10;12.00;;;5.40;;
2452;SDS011;63678;47.994;7.854;2024-01-16T09:07:48;10.80;;;5.23;;
2452;SDS011;63678;47.994;7.854;2024-01-16T09:10:23;12.57;;;5.50;;
2452;SDS011;63678;47.994;7.854;2024-01-16T09:12:56;12.63;;;5.68;;
2452;SDS011;63678;47.994;7.854;2024-01-16T09:15:31;9.60;;;5.28;;
2452;SDS011;63678;47.994;7.854;2024-01-16T09:18:04;12.30;;;5.68;;
2452;SDS011;63678;47.994;7.854;2024-01-16T09:20:38;11.53;;;5.10;;
2452;SDS011;63678;47.994;7.854;2024-01-16T09:23:10;9.05;;;4.55;;
2452;SDS011;63678;47.994;7.854;2024-01-16T09:25:44;11.23;;;5.38;;
2452;SDS011;63678;47.994;7.854;2024-01-16T09:28:19;9.00;;;5.03;;
2452;SDS011;63678;47.994;7.854;2024-01-16T09:30:51;8.05;;;4.78;;
2452;SDS011;63678;47.994;7.854;2024-01-16T09:33:24;9.53;;;5.00;;
2452;SDS011;63678;47.994;7.854;2024-01-16T09:35:57;11.60;;;4.63;;
2452;SDS011;63678;47.994;7.854;2024-01-16T09:38:30;10.10;;;5.03;;
2452;SDS011;63678;47.994;7.854;2024-01-16T09:41:03;13.02;;;4.88;;
2452;SDS011;63678;47.994;7.854;2024-01-16T09:43:36;10.82;;;5.70;;
2452;SDS011;63678;47.994;7.854;2024-01-16T09:46:09;10.73;;;5.50;;
2452;SDS011;63678;47.994;7.854;2024-01-16T09:48:44;10.77;;;5.43;;
2452;SDS011;63678;47.994;7.854;2024-01-16T09:51:17;12.45;;;6.20;;
2452;SDS011;63678;47.994;7.854;2024-01-16T09:53:50;15.52;;;5.82;;
2452;SDS011;63678;47.994;7.854;2024-01-16T09:56:23;12.57;;;6.07;;
2452;SDS011;63678;47.994;7.854;2024-01-16T09:58:58;12.83;;;5.03;;
2452;SDS011;63678;47.994;7.854;2024-01-16T10:01:37;9.05;;;4.80;;
2452;SDS011;63678;47.994;7.854;2024-01-16T10:04:10;13.77;;;5.07;;
2452;SDS011;63678;47.994;7.854;2024-01-16T10:06:44;10.23;;;4.22;;
2452;SDS011;63678;47.994;7.854;2024-01-16T10:09:20;15.27;;;3.95;;
2452;SDS011;63678;47.994;7.854;2024-01-16T10:11:53;8.43;;;3.33;;
2452;SDS011;63678;47.994;7.854;2024-01-16T10:14:29;9.55;;;3.67;;
2452;SDS011;63678;47.994;7.854;2024-01-16T10:17:03;17.77;;;8.35;;
2452;SDS011;63678;47.994;7.854;2024-01-16T10:19:47;43.67;;;16.08;;
2452;SDS011;63678;47.994;7.854;2024-01-16T10:22:23;17.75;;;6.57;;
2452;SDS011;63678;47.994;7.854;2024-01-16T10:25:05;11.20;;;5.70;;
2452;SDS011;63678;47.994;7.854;2024-01-16T10:27:44;12.82;;;5.15;;
2452;SDS011;63678;47.994;7.854;2024-01-16T10:30:20;13.75;;;5.30;;
2452;SDS011;63678;47.994;7.854;2024-01-16T10:33:00;10.73;;;5.32;;
2452;SDS011;63678;47.994;7.854;2024-01-16T10:35:49;14.40;;;5.35;;
2452;SDS011;63678;47.994;7.854;2024-01-16T10:38:22;13.57;;;5.73;;
2452;SDS011;63678;47.994;7.854;2024-01-16T10:43:46;15.45;;;6.05;;
2452;SDS011;63678;47.994;7.854;2024-01-16T10:46:19;15.07;;;5.75;;
2452;SDS011;63678;47.994;7.854;2024-01-16T10:49:04;11.52;;;5.80;;
2452;SDS011;63678;47.994;7.854;2024-01-16T10:51:38;9.23;;;5.03;;
2452;SDS011;63678;47.994;7.854;2024-01-16T10:54:14;12.02;;;6.05;;
2452;SDS011;63678;47.994;7.854;2024-01-16T10:56:47;13.05;;;5.35;;
2452;SDS011;63678;47.994;7.854;2024-01-16T10:59:31;12.50;;;5.75;;
2452;SDS011;63678;47.994;7.854;2024-01-16T11:02:24;13.75;;;5.72;;
2452;SDS011;63678;47.994;7.854;2024-01-16T11:05:01;11.40;;;5.73;;
2452;SDS011;63678;47.994;7.854;2024-01-16T11:07:37;15.77;;;6.03;;
2452;SDS011;63678;47.994;7.854;2024-01-16T11:10:12;12.40;;;6.00;;
2452;SDS011;63678;47.994;7.854;2024-01-16T11:12:45;14.07;;;6.10;;
2452;SDS011;63678;47.994;7.854;2024-01-16T11:15:19;16.38;;;5.75;;
2452;SDS011;63678;47.994;7.854;2024-01-16T11:17:53;11.57;;;6.20;;
2452;SDS011;63678;47.994;7.854;2024-01-16T11:20:31;13.88;;;6.45;;
2452;SDS011;63678;47.994;7.854;2024-01-16T11:23:26;14.63;;;6.72;;
2452;SDS011;63678;47.994;7.854;2024-01-16T11:32:00;12.90;;;6.07;;
2452;SDS011;63678;47.994;7.854;2024-01-16T11:34:55;18.73;;;6.30;;
2452;SDS011;63678;47.994;7.854;2024-01-16T11:37:29;11.45;;;5.57;;
2452;SDS011;63678;47.994;7.854;2024-01-16T11:42:53;10.77;;;5.75;;
2452;SDS011;63678;47.994;7.854;2024-01-16T11:48:12;11.10;;;5.55;;
2452;SDS011;63678;47.994;7.854;2024-01-16T11:50:47;13.65;;;6.15;;
2452;SDS011;63678;47.994;7.854;2024-01-16T11:59:14;10.70;;;5.23;;
2452;SDS011;63678;47.994;7.854;2024-01-16T12:02:14;10.65;;;5.63;;
2452;SDS011;63678;47.994;7.854;2024-01-16T12:05:01;16.52;;;6.30;;
2452;SDS011;63678;47.994;7.854;2024-01-16T12:07:49;16.13;;;5.40;;
2452;SDS011;63678;47.994;7.854;2024-01-16T12:10:25;16.17;;;5.85;;
2452;SDS011;63678;47.994;7.854;2024-01-16T12:12:58;15.37;;;5.57;;
2452;SDS011;63678;47.994;7.854;2024-01-16T12:15:35;11.68;;;5.50;;
2452;SDS011;63678;47.994;7.854;2024-01-16T12:18:08;12.77;;;5.50;;
2452;SDS011;63678;47.994;7.854;2024-01-16T12:20:57;23.15;;;5.60;;
2452;SDS011;63678;47.994;7.854;2024-01-16T12:23:40;14.73;;;5.40;;
2452;SDS011;63678;47.994;7.854;2024-01-16T12:26:26;10.67;;;4.60;;
2452;SDS011;63678;47.994;7.854;2024-01-16T12:28:58;11.07;;;5.47;;
2452;SDS011;63678;47.994;7.854;2024-01-16T12:31:31;16.85;;;5.65;;
2452;SDS011;63678;47.994;7.854;2024-01-16T12:34:07;10.07;;;5.05;;
2452;SDS011;63678;47.994;7.854;2024-01-16T12:36:41;10.40;;;4.30;;
2452;SDS011;63678;47.994;7.854;2024-01-16T12:39:18;17.43;;;4.67;;
2452;SDS011;63678;47.994;7.854;2024-01-16T12:41:51;9.27;;;4.53;;
2452;SDS011;63678;47.994;7.854;2024-01-16T12:44:27;20.05;;;4.40;;
2452;SDS011;63678;47.994;7.854;2024-01-16T12:47:00;12.70;;;4.72;;
2452;SDS011;63678;47.994;7.854;2024-01-16T12:49:39;18.30;;;4.45;;
2452;SDS011;63678;47.994;7.854;2024-01-16T12:52:18;18.37;;;5.03;;
2452;SDS011;63678;47.994;7.854;2024-01-16T12:54:59;14.98;;;4.57;;
2452;SDS011;63678;47.994;7.854;2024-01-16T12:57:39;9.50;;;4.15;;
2452;SDS011;63678;47.994;7.854;2024-01-16T13:00:22;14.52;;;4.72;;
2452;SDS011;63678;47.994;7.854;2024-01-16T13:02:57;17.15;;;5.20;;
2452;SDS011;63678;47.994;7.854;2024-01-16T13:05:33;11.10;;;4.10;;
2452;SDS011;63678;47.994;7.854;2024-01-16T13:08:05;19.30;;;4.90;;
2452;SDS011;63678;47.994;7.854;2024-01-16T13:10:38;14.63;;;5.28;;
2452;SDS011;63678;47.994;7.854;2024-01-16T13:16:04;20.33;;;5.63;;
2452;SDS011;63678;47.994;7.854;2024-01-16T13:18:39;20.57;;;5.03;;
2452;SDS011;63678;47.994;7.854;2024-01-16T13:21:12;12.32;;;4.75;;
2452;SDS011;63678;47.994;7.854;2024-01-16T13:23:44;12.13;;;5.03;;
2452;SDS011;63678;47.994;7.854;2024-01-16T13:26:17;14.50;;;5.60;;
2452;SDS011;63678;47.994;7.854;2024-01-16T13:28:49;44.85;;;7.25;;
2452;SDS011;63678;47.994;7.854;2024-01-16T13:31:22;24.33;;;6.93;;
2452;SDS011;63678;47.994;7.854;2024-01-16T13:33:55;17.13;;;4.97;;
2452;SDS011;63678;47.994;7.854;2024-01-16T13:36:30;19.63;;;5.95;;
2452;SDS011;63678;47.994;7.854;2024-01-16T13:39:23;41.72;;;6.50;;
2452;SDS011;63678;47.994;7.854;2024-01-16T13:41:55;57.90;;;8.48;;
2452;SDS011;63678;47.994;7.854;2024-01-16T13:44:27;24.77;;;5.67;;
2452;SDS011;63678;47.994;7.854;2024-01-16T13:47:00;23.63;;;6.90;;
2452;SDS011;63678;47.994;7.854;2024-01-16T13:49:41;22.42;;;6.53;;
2452;SDS011;63678;47.994;7.854;2024-01-16T13:52:13;17.65;;;5.82;;
2452;SDS011;63678;47.994;7.854;2024-01-16T13:54:46;18.20;;;5.82;;
2452;SDS011;63678;47.994;7.854;2024-01-16T13:57:19;16.37;;;5.63;;
2452;SDS011;63678;47.994;7.854;2024-01-16T13:59:51;15.90;;;5.57;;
2452;SDS011;63678;47.994;7.854;2024-01-16T14:02:24;17.27;;;5.53;;
2452;SDS011;63678;47.994;7.854;2024-01-16T14:04:56;12.02;;;5.90;;
2452;SDS011;63678;47.994;7.854;2024-01-16T14:07:29;20.73;;;6.43;;
2452;SDS011;63678;47.994;7.854;2024-01-16T14:10:02;12.83;;;5.73;;
2452;SDS011;63678;47.994;7.854;2024-01-16T14:12:39;17.98;;;5.90;;
2452;SDS011;63678;47.994;7.854;2024-01-16T14:15:16;18.33;;;5.88;;
2452;SDS011;63678;47.994;7.854;2024-01-16T14:20:26;20.50;;;6.30;;
2452;SDS011;63678;47.994;7.854;2024-01-16T14:22:59;20.30;;;6.53;;
2452;SDS011;63678;47.994;7.854;2024-01-16T14:25:32;20.05;;;6.75;;
2452;SDS011;63678;47.994;7.854;2024-01-16T14:28:06;14.10;;;6.45;;
2452;SDS011;63678;47.994;7.854;2024-01-16T14:30:48;29.88;;;6.75;;
2452;SDS011;63678;47.994;7.854;2024-01-16T14:33:22;24.60;;;6.90;;
2452;SDS011;63678;47.994;7.854;2024-01-16T14:35:55;25.47;;;7.13;;
2452;SDS011;63678;47.994;7.854;2024-01-16T14:38:31;18.05;;;6.30;;
2452;SDS011;63678;47.994;7.854;2024-01-16T14:41:04;15.75;;;6.40;;
2452;SDS011;63678;47.994;7.854;2024-01-16T14:43:37;37.03;;;7.65;;
2452;SDS011;63678;47.994;7.854;2024-01-16T14:46:09;25.80;;;7.13;;
2452;SDS011;63678;47.994;7.854;2024-01-16T14:48:45;15.67;;;6.20;;
2452;SDS011;63678;47.994;7.854;2024-01-16T14:51:18;27.77;;;7.82;;
2452;SDS011;63678;47.994;7.854;2024-01-16T14:53:50;31.02;;;7.63;;
2452;SDS011;63678;47.994;7.854;2024-01-16T14:56:23;31.05;;;8.45;;
2452;SDS011;63678;47.994;7.854;2024-01-16T14:58:55;23.90;;;7.55;;
2452;SDS011;63678;47.994;7.854;2024-01-16T15:01:29;20.80;;;7.07;;
2452;SDS011;63678;47.994;7.854;2024-01-16T15:04:01;23.73;;;6.85;;
2452;SDS011;63678;47.994;7.854;2024-01-16T15:06:34;20.10;;;7.20;;
2452;SDS011;63678;47.994;7.854;2024-01-16T15:09:07;19.92;;;7.95;;
2452;SDS011;63678;47.994;7.854;2024-01-16T15:11:42;22.65;;;8.15;;
2452;SDS011;63678;47.994;7.854;2024-01-16T15:14:20;19.30;;;6.50;;
2452;SDS011;63678;47.994;7.854;2024-01-16T15:16:53;17.88;;;7.10;;
2452;SDS011;63678;47.994;7.854;2024-01-16T15:19:26;29.77;;;7.20;;
2452;SDS011;63678;47.994;7.854;2024-01-16T15:21:59;27.38;;;6.63;;
2452;SDS011;63678;47.994;7.854;2024-01-16T15:24:32;16.80;;;8.00;;
2452;SDS011;63678;47.994;7.854;2024-01-16T15:27:04;25.63;;;7.07;;
2452;SDS011;63678;47.994;7.854;2024-01-16T15:29:37;29.17;;;8.57;;
2452;SDS011;63678;47.994;7.854;2024-01-16T15:32:09;20.50;;;7.25;;
2452;SDS011;63678;47.994;7.854;2024-01-16T15:34:42;26.33;;;6.57;;
2452;SDS011;63678;47.994;7.854;2024-01-16T15:37:15;27.23;;;6.95;;
2452;SDS011;63678;47.994;7.854;2024-01-16T15:39:48;24.30;;;6.33;;
2452;SDS011;63678;47.994;7.854;2024-01-16T15:42:21;18.88;;;7.00;;
2452;SDS011;63678;47.994;7.854;2024-01-16T15:44:53;28.45;;;7.70;;
2452;SDS011;63678;47.994;7.854;2024-01-16T15:47:26;23.25;;;5.75;;
2452;SDS011;63678;47.994;7.854;2024-01-16T15:50:01;22.23;;;7.20;;
2452;SDS011;63678;47.994;7.854;2024-01-16T15:52:36;18.27;;;7.53;;
2452;SDS011;63678;47.994;7.854;2024-01-16T15:55:08;19.40;;;7.72;;
2452;SDS011;63678;47.994;7.854;2024-01-16T15:57:43;19.88;;;8.82;;